createdAt,value
2023-07-24T00:00:00.554Z,22.27
2023-07-24T00:05:04.076Z,22.15
2023-07-24T00:10:08.204Z,22.09
2023-07-24T00:15:13.170Z,22.06
2023-07-24T00:20:20.857Z,21.95
2023-07-24T00:25:24.324Z,21.40
2023-07-24T00:30:29.154Z,21.52
2023-07-24T00:35:32.574Z,21.36
2023-07-24T00:40:36.040Z,20.24
2023-07-24T00:45:40.940Z,21.22
2023-07-24T00:50:45.327Z,19.51
2023-07-24T00:55:49.383Z,21.37
2023-07-24T01:00:54.313Z,21.34
2023-07-24T01:05:58.299Z,21.26
2023-07-24T01:11:07.607Z,21.09
2023-07-24T01:16:16.369Z,21.11
2023-07-24T01:21:29.076Z,20.76
2023-07-24T01:26:34.574Z,21.00
2023-07-24T01:31:38.114Z,20.88
2023-07-24T01:36:41.705Z,20.83
2023-07-24T01:41:46.751Z,20.79
2023-07-24T01:46:50.222Z,20.72
2023-07-24T01:51:53.628Z,20.30
2023-07-24T01:56:58.412Z,20.63
2023-07-24T02:02:01.796Z,20.60
2023-07-24T02:07:05.861Z,20.08
2023-07-24T02:12:10.689Z,20.56
2023-07-24T02:17:14.152Z,20.02
2023-07-24T02:22:17.721Z,20.50
2023-07-24T02:27:29.957Z,20.59
2023-07-24T02:32:34.967Z,20.22
2023-07-24T02:37:38.538Z,20.03
2023-07-24T02:42:43.276Z,20.49
2023-07-24T02:47:46.853Z,20.47
2023-07-24T02:52:51.183Z,20.33
2023-07-24T02:57:56.104Z,19.57
2023-07-24T03:02:59.585Z,20.11
2023-07-24T03:08:03.273Z,20.11
2023-07-24T03:13:09.069Z,18.48
2023-07-24T03:18:12.491Z,19.67
2023-07-24T03:23:16.582Z,20.00
2023-07-24T03:28:21.438Z,20.26
2023-07-24T03:33:24.889Z,20.20
2023-07-24T03:38:28.503Z,20.00
2023-07-24T03:43:33.219Z,20.17
2023-07-24T03:48:37.667Z,20.11
2023-07-24T03:53:41.041Z,20.06
2023-07-24T03:58:45.873Z,19.62
2023-07-24T04:03:49.353Z,20.01
2023-07-24T04:08:54.017Z,19.99
2023-07-24T04:13:58.806Z,20.01
2023-07-24T04:19:02.229Z,19.82
2023-07-24T04:24:06.057Z,19.92
2023-07-24T04:29:10.834Z,19.73
2023-07-24T04:34:14.247Z,19.90
2023-07-24T04:39:17.685Z,19.89
2023-07-24T04:44:22.486Z,19.57
2023-07-24T04:49:25.930Z,19.37
2023-07-24T04:54:30.457Z,20.00
2023-07-24T04:59:35.234Z,20.07
2023-07-24T05:04:38.711Z,19.90
2023-07-24T05:09:42.146Z,20.05
2023-07-24T05:14:46.943Z,20.17
2023-07-24T05:19:50.331Z,20.02
2023-07-24T05:24:53.822Z,20.21
2023-07-24T05:29:58.624Z,19.94
2023-07-24T05:35:02.284Z,20.10
2023-07-24T05:40:07.064Z,19.29
2023-07-24T05:45:13.152Z,20.43
2023-07-24T05:50:16.618Z,20.43
2023-07-24T05:55:20.112Z,18.86
2023-07-24T06:00:25.031Z,20.15
2023-07-24T06:05:28.504Z,20.23
2023-07-24T06:10:31.934Z,20.55
2023-07-24T06:15:36.748Z,20.25
2023-07-24T06:20:40.157Z,20.50
2023-07-24T06:25:44.489Z,19.08
2023-07-24T06:30:49.221Z,20.81
2023-07-24T06:35:53.074Z,20.50
2023-07-24T06:40:56.648Z,20.93
2023-07-24T06:46:01.652Z,21.02
2023-07-24T06:51:05.312Z,21.07
2023-07-24T06:56:08.779Z,21.12
2023-07-24T07:01:13.663Z,20.89
2023-07-24T07:11:23.664Z,21.32
2023-07-24T07:16:28.660Z,21.44
2023-07-24T07:21:32.344Z,21.10
2023-07-24T07:26:35.834Z,21.18
2023-07-24T07:31:40.741Z,21.63
2023-07-24T07:36:44.307Z,21.57
2023-07-24T07:41:47.870Z,21.28
2023-07-24T07:46:52.760Z,21.24
2023-07-24T07:51:56.288Z,20.75
2023-07-24T07:56:59.748Z,21.59
2023-07-24T08:02:04.930Z,20.94
2023-07-24T08:07:08.540Z,21.31
2023-07-24T08:12:12.075Z,20.83
2023-07-24T08:17:17.183Z,21.82
2023-07-24T08:22:23.910Z,21.79
2023-07-24T08:27:27.374Z,21.47
2023-07-24T08:32:32.235Z,21.79
2023-07-24T08:37:35.656Z,21.77
2023-07-24T08:42:40.954Z,21.84
2023-07-24T08:47:46.662Z,21.88
2023-07-24T08:52:50.172Z,21.83
2023-07-24T08:57:53.957Z,21.56
2023-07-24T09:02:59.155Z,21.93
2023-07-24T09:08:02.860Z,22.15
2023-07-24T09:13:06.257Z,22.27
2023-07-24T09:18:11.572Z,22.41
2023-07-24T09:23:19.807Z,21.94
2023-07-24T09:28:27.973Z,22.34
2023-07-24T09:33:41.062Z,22.77
2023-07-24T09:38:47.057Z,22.71
2023-07-24T09:43:50.408Z,22.87
2023-07-24T09:54:08.941Z,23.07
2023-07-24T09:59:13.713Z,23.09
2023-07-24T10:04:18.896Z,23.15
2023-07-24T10:09:26.273Z,23.17
2023-07-24T10:14:32.862Z,22.95
2023-07-24T10:19:43.027Z,22.91
2023-07-24T10:24:46.382Z,23.44
2023-07-24T10:30:00.569Z,23.30
2023-07-24T10:35:10.826Z,23.23
2023-07-24T10:40:22.766Z,23.20
2023-07-24T10:45:26.194Z,23.06
2023-07-24T10:50:40.748Z,22.88
2023-07-24T10:55:44.555Z,22.60
2023-07-24T11:00:48.685Z,22.61
2023-07-24T11:05:54.187Z,22.65
2023-07-24T11:10:59.228Z,21.65
2023-07-24T11:16:07.013Z,22.82
2023-07-24T11:21:14.557Z,22.75
2023-07-24T11:26:20.877Z,22.50
2023-07-24T11:31:24.454Z,22.54
2023-07-24T11:36:29.630Z,20.83
2023-07-24T11:41:33.665Z,21.65
2023-07-24T11:46:37.520Z,22.30
2023-07-24T11:51:42.504Z,22.56
2023-07-24T11:56:46.045Z,22.60
2023-07-24T12:01:50.208Z,22.49
2023-07-24T12:06:55.073Z,21.15
2023-07-24T12:12:01.083Z,22.65
2023-07-24T12:17:11.251Z,22.22
2023-07-24T12:22:17.849Z,22.77
2023-07-24T12:27:22.176Z,21.04
2023-07-24T12:32:30.541Z,22.42
2023-07-24T12:37:36.007Z,22.08
2023-07-24T12:42:42.431Z,22.28
2023-07-24T12:47:47.584Z,22.29
2023-07-24T12:52:54.077Z,22.07
2023-07-24T12:57:58.302Z,22.05
2023-07-24T13:03:01.920Z,22.32
2023-07-24T13:08:06.930Z,22.40
2023-07-24T13:13:11.124Z,22.41
2023-07-24T13:18:27.780Z,22.44
2023-07-24T13:23:34.010Z,22.49
2023-07-24T13:28:37.484Z,22.37
2023-07-24T13:33:40.996Z,22.21
2023-07-24T13:38:45.917Z,20.61
2023-07-24T13:43:49.541Z,22.54
2023-07-24T13:48:53.015Z,22.65
2023-07-24T13:53:57.836Z,22.79
2023-07-24T13:59:01.510Z,22.92
2023-07-24T14:04:05.200Z,23.19
2023-07-24T14:09:10.439Z,23.49
2023-07-24T14:14:14.063Z,22.98
2023-07-24T14:19:18.649Z,23.77
2023-07-24T14:24:23.531Z,23.77
2023-07-24T14:29:26.992Z,24.14
2023-07-24T14:34:30.558Z,24.15
2023-07-24T14:39:35.445Z,24.32
2023-07-24T14:44:38.943Z,22.75
2023-07-24T14:49:42.364Z,24.59
2023-07-24T14:54:47.156Z,24.73
2023-07-24T14:59:50.659Z,24.74
2023-07-24T15:04:54.314Z,24.51
2023-07-24T15:09:59.336Z,24.43
2023-07-24T15:15:02.804Z,24.60
2023-07-24T15:20:09.229Z,25.06
2023-07-24T15:25:14.054Z,25.10
2023-07-24T15:30:17.569Z,25.07
2023-07-24T15:35:21.090Z,24.97
2023-07-24T15:40:25.934Z,24.82
2023-07-24T15:45:29.452Z,24.71
2023-07-24T15:50:32.904Z,24.94
2023-07-24T15:55:37.711Z,23.32
2023-07-24T16:00:41.340Z,24.55
2023-07-24T16:05:44.869Z,24.73
2023-07-24T16:10:49.618Z,24.45
2023-07-24T16:15:53.006Z,24.69
2023-07-24T16:20:56.484Z,24.56
2023-07-24T16:26:01.363Z,23.64
2023-07-24T16:31:04.775Z,23.46
2023-07-24T16:36:08.242Z,23.30
2023-07-24T16:41:13.275Z,23.18
2023-07-24T16:51:23.189Z,22.72
2023-07-24T16:56:27.992Z,21.58
2023-07-24T17:01:34.241Z,21.87
2023-07-24T17:06:38.144Z,22.14
2023-07-24T17:11:45.205Z,21.83
2023-07-24T17:16:48.881Z,21.48
2023-07-24T17:21:52.394Z,21.72
2023-07-24T17:26:57.285Z,21.78
2023-07-24T17:32:01.506Z,21.49
2023-07-24T17:37:05.336Z,21.87
2023-07-24T17:42:10.528Z,21.79
2023-07-24T17:47:13.960Z,22.07
2023-07-24T17:52:17.585Z,21.88
2023-07-24T17:57:22.612Z,22.02
2023-07-24T18:02:26.254Z,21.71
2023-07-24T18:07:29.737Z,22.06
2023-07-24T18:12:34.613Z,22.04
2023-07-24T18:17:38.068Z,21.91
2023-07-24T18:22:43.970Z,21.67
2023-07-24T18:27:48.821Z,21.74
2023-07-24T18:32:52.351Z,21.67
2023-07-24T18:37:56.839Z,21.71
2023-07-24T18:43:01.627Z,21.79
2023-07-24T18:48:05.583Z,21.76
2023-07-24T18:53:09.144Z,21.37
2023-07-24T18:58:14.422Z,21.16
2023-07-24T19:03:18.049Z,21.08
2023-07-24T19:08:21.493Z,21.40
2023-07-24T19:13:27.758Z,21.68
2023-07-24T19:18:31.247Z,21.06
2023-07-24T19:23:34.812Z,21.62
2023-07-24T19:28:39.595Z,20.79
2023-07-24T19:33:43.054Z,21.52
2023-07-24T19:38:46.714Z,20.78
2023-07-24T19:43:51.713Z,19.94
2023-07-24T19:48:55.936Z,19.66
2023-07-24T19:53:59.363Z,21.33
2023-07-24T19:59:04.269Z,21.08
2023-07-24T20:04:07.812Z,21.25
2023-07-24T20:09:11.273Z,21.20
2023-07-24T20:14:16.041Z,20.53
2023-07-24T20:19:19.438Z,20.92
2023-07-24T20:24:22.818Z,20.87
2023-07-24T20:29:27.670Z,20.94
2023-07-24T20:34:31.077Z,20.79
2023-07-24T20:39:34.515Z,20.60
2023-07-24T20:44:39.367Z,20.63
2023-07-24T20:49:42.833Z,20.58
2023-07-24T20:54:48.763Z,20.54
2023-07-24T20:59:53.566Z,20.55
2023-07-24T21:04:57.086Z,20.47
2023-07-24T21:10:00.523Z,20.16
2023-07-24T21:15:06.171Z,20.18
2023-07-24T21:20:10.317Z,18.07
2023-07-24T21:25:13.804Z,19.49
2023-07-24T21:30:19.936Z,19.46
2023-07-24T21:35:23.430Z,19.55
2023-07-24T21:40:26.884Z,20.00
2023-07-24T21:45:31.617Z,20.16
2023-07-24T21:50:35.210Z,19.56
2023-07-24T21:55:40.359Z,19.69
2023-07-24T22:00:45.241Z,19.76
2023-07-24T22:05:48.854Z,19.96
2023-07-24T22:10:52.388Z,19.92
2023-07-24T22:15:57.213Z,19.75
2023-07-24T22:21:00.741Z,19.72
2023-07-24T22:26:04.383Z,19.82
2023-07-24T22:31:12.930Z,19.58
2023-07-24T22:36:16.500Z,19.49
2023-07-24T22:41:20.041Z,19.47
2023-07-24T22:46:24.996Z,19.71
2023-07-24T22:51:28.775Z,19.64
2023-07-24T22:56:32.364Z,19.47
2023-07-24T23:01:37.130Z,19.47
2023-07-24T23:06:40.502Z,19.36
2023-07-24T23:11:44.300Z,19.30
2023-07-24T23:16:49.074Z,18.76
2023-07-24T23:21:52.562Z,19.23
2023-07-24T23:26:56.497Z,18.63
2023-07-24T23:32:01.354Z,16.77
2023-07-24T23:37:09.473Z,18.50
2023-07-24T23:42:12.937Z,16.70
2023-07-24T23:47:17.876Z,18.90
2023-07-24T23:52:21.493Z,18.90
2023-07-24T23:57:28.804Z,18.83
